sensor_id;sensor_type;location;lat;lon;timestamp;P1;durP1;ratioP1;P2;durP2;ratioP2
5585;SDS011;2815;54.094;12.112;2023-07-31T00:00:03;4.78;;;1.20;;
5585;SDS011;2815;54.094;12.112;2023-07-31T00:02:32;2.05;;;1.10;;
5585;SDS011;2815;54.094;12.112;2023-07-31T00:05:02;3.03;;;1.13;;
5585;SDS011;2815;54.094;12.112;2023-07-31T00:16:47;3.30;;;0.90;;
5585;SDS011;2815;54.094;12.112;2023-07-31T00:32:37;4.78;;;1.20;;
5585;SDS011;2815;54.094;12.112;2023-07-31T00:35:05;4.32;;;1.15;;
5585;SDS011;2815;54.094;12.112;2023-07-31T00:50:00;5.43;;;1.30;;
5585;SDS011;2815;54.094;12.112;2023-07-31T00:52:28;4.55;;;0.95;;
5585;SDS011;2815;54.094;12.112;2023-07-31T00:54:57;2.88;;;1.10;;
5585;SDS011;2815;54.094;12.112;2023-07-31T01:04:31;3.58;;;1.13;;
5585;SDS011;2815;54.094;12.112;2023-07-31T01:07:04;4.80;;;1.42;;
5585;SDS011;2815;54.094;12.112;2023-07-31T01:20:33;3.53;;;1.50;;
5585;SDS011;2815;54.094;12.112;2023-07-31T01:37:13;2.55;;;1.10;;
5585;SDS011;2815;54.094;12.112;2023-07-31T01:39:42;4.93;;;1.10;;
5585;SDS011;2815;54.094;12.112;2023-07-31T01:42:10;4.07;;;1.15;;
5585;SDS011;2815;54.094;12.112;2023-07-31T01:44:39;2.17;;;1.10;;
5585;SDS011;2815;54.094;12.112;2023-07-31T01:47:07;2.97;;;1.33;;
5585;SDS011;2815;54.094;12.112;2023-07-31T01:57:36;2.63;;;1.10;;
5585;SDS011;2815;54.094;12.112;2023-07-31T02:00:05;4.60;;;1.30;;
5585;SDS011;2815;54.094;12.112;2023-07-31T02:02:38;6.55;;;1.20;;
5585;SDS011;2815;54.094;12.112;2023-07-31T02:12:25;4.32;;;1.20;;
5585;SDS011;2815;54.094;12.112;2023-07-31T02:14:59;1.83;;;1.10;;
5585;SDS011;2815;54.094;12.112;2023-07-31T02:30:13;5.57;;;2.22;;
5585;SDS011;2815;54.094;12.112;2023-07-31T02:36:03;3.10;;;1.30;;
5585;SDS011;2815;54.094;12.112;2023-07-31T02:38:32;4.70;;;1.25;;
5585;SDS011;2815;54.094;12.112;2023-07-31T02:41:00;5.68;;;1.42;;
5585;SDS011;2815;54.094;12.112;2023-07-31T02:43:29;3.05;;;1.30;;
5585;SDS011;2815;54.094;12.112;2023-07-31T02:48:42;7.55;;;1.40;;
5585;SDS011;2815;54.094;12.112;2023-07-31T02:51:10;6.53;;;1.60;;
5585;SDS011;2815;54.094;12.112;2023-07-31T02:53:39;4.35;;;1.30;;
5585;SDS011;2815;54.094;12.112;2023-07-31T02:56:18;6.38;;;1.55;;
5585;SDS011;2815;54.094;12.112;2023-07-31T02:58:47;4.65;;;1.63;;
5585;SDS011;2815;54.094;12.112;2023-07-31T03:01:18;4.97;;;1.50;;
5585;SDS011;2815;54.094;12.112;2023-07-31T03:03:46;5.90;;;1.75;;
5585;SDS011;2815;54.094;12.112;2023-07-31T03:06:18;6.70;;;1.50;;
5585;SDS011;2815;54.094;12.112;2023-07-31T03:08:47;4.43;;;1.27;;
5585;SDS011;2815;54.094;12.112;2023-07-31T03:11:15;2.15;;;1.63;;
5585;SDS011;2815;54.094;12.112;2023-07-31T03:13:44;4.22;;;1.50;;
5585;SDS011;2815;54.094;12.112;2023-07-31T03:16:12;3.63;;;1.45;;
5585;SDS011;2815;54.094;12.112;2023-07-31T03:18:44;5.47;;;2.28;;
5585;SDS011;2815;54.094;12.112;2023-07-31T03:23:45;4.97;;;1.40;;
5585;SDS011;2815;54.094;12.112;2023-07-31T03:26:14;2.95;;;1.65;;
5585;SDS011;2815;54.094;12.112;2023-07-31T03:28:42;6.80;;;1.70;;
5585;SDS011;2815;54.094;12.112;2023-07-31T03:31:11;3.65;;;1.48;;
5585;SDS011;2815;54.094;12.112;2023-07-31T03:33:41;4.90;;;1.83;;
5585;SDS011;2815;54.094;12.112;2023-07-31T03:36:11;2.80;;;1.48;;
5585;SDS011;2815;54.094;12.112;2023-07-31T03:38:40;5.45;;;1.58;;
5585;SDS011;2815;54.094;12.112;2023-07-31T03:41:09;4.18;;;1.67;;
5585;SDS011;2815;54.094;12.112;2023-07-31T03:43:38;5.15;;;1.63;;
5585;SDS011;2815;54.094;12.112;2023-07-31T03:46:11;3.17;;;1.67;;
5585;SDS011;2815;54.094;12.112;2023-07-31T03:48:40;4.03;;;1.60;;
5585;SDS011;2815;54.094;12.112;2023-07-31T03:55:21;5.65;;;1.70;;
5585;SDS011;2815;54.094;12.112;2023-07-31T03:57:50;7.35;;;2.00;;
5585;SDS011;2815;54.094;12.112;2023-07-31T04:00:39;5.75;;;1.83;;
5585;SDS011;2815;54.094;12.112;2023-07-31T04:03:08;5.53;;;1.75;;
5585;SDS011;2815;54.094;12.112;2023-07-31T04:05:53;6.95;;;1.90;;
5585;SDS011;2815;54.094;12.112;2023-07-31T04:08:22;8.13;;;2.35;;
5585;SDS011;2815;54.094;12.112;2023-07-31T04:57:14;6.88;;;2.00;;
5585;SDS011;2815;54.094;12.112;2023-07-31T04:59:43;8.18;;;2.50;;
5585;SDS011;2815;54.094;12.112;2023-07-31T05:22:33;8.23;;;2.47;;
5585;SDS011;2815;54.094;12.112;2023-07-31T05:25:02;8.00;;;2.60;;
5585;SDS011;2815;54.094;12.112;2023-07-31T05:38:16;5.63;;;2.60;;
5585;SDS011;2815;54.094;12.112;2023-07-31T05:40:45;12.70;;;3.08;;
5585;SDS011;2815;54.094;12.112;2023-07-31T05:43:53;9.70;;;3.03;;
5585;SDS011;2815;54.094;12.112;2023-07-31T05:46:21;12.23;;;2.63;;
5585;SDS011;2815;54.094;12.112;2023-07-31T05:48:49;5.68;;;2.78;;
5585;SDS011;2815;54.094;12.112;2023-07-31T05:51:18;6.78;;;2.75;;
5585;SDS011;2815;54.094;12.112;2023-07-31T05:53:48;7.57;;;3.00;;
5585;SDS011;2815;54.094;12.112;2023-07-31T05:56:17;7.78;;;2.85;;
5585;SDS011;2815;54.094;12.112;2023-07-31T05:58:45;7.65;;;2.95;;
5585;SDS011;2815;54.094;12.112;2023-07-31T06:01:17;11.95;;;2.63;;
5585;SDS011;2815;54.094;12.112;2023-07-31T06:03:45;5.40;;;2.67;;
5585;SDS011;2815;54.094;12.112;2023-07-31T06:06:14;8.00;;;3.00;;
5585;SDS011;2815;54.094;12.112;2023-07-31T06:08:43;7.78;;;2.97;;
5585;SDS011;2815;54.094;12.112;2023-07-31T06:11:14;11.80;;;3.10;;
5585;SDS011;2815;54.094;12.112;2023-07-31T06:13:44;6.50;;;3.30;;
5585;SDS011;2815;54.094;12.112;2023-07-31T06:16:14;6.07;;;3.08;;
5585;SDS011;2815;54.094;12.112;2023-07-31T06:19:13;6.28;;;2.65;;
5585;SDS011;2815;54.094;12.112;2023-07-31T06:21:41;7.82;;;3.10;;
5585;SDS011;2815;54.094;12.112;2023-07-31T06:24:11;7.43;;;3.05;;
5585;SDS011;2815;54.094;12.112;2023-07-31T06:26:42;5.72;;;2.85;;
5585;SDS011;2815;54.094;12.112;2023-07-31T06:29:10;7.15;;;3.20;;
5585;SDS011;2815;54.094;12.112;2023-07-31T06:31:38;6.15;;;2.92;;
5585;SDS011;2815;54.094;12.112;2023-07-31T06:34:09;4.65;;;3.10;;
5585;SDS011;2815;54.094;12.112;2023-07-31T06:36:38;5.20;;;2.92;;
5585;SDS011;2815;54.094;12.112;2023-07-31T06:39:09;8.13;;;3.10;;
5585;SDS011;2815;54.094;12.112;2023-07-31T06:41:38;5.00;;;3.10;;
5585;SDS011;2815;54.094;12.112;2023-07-31T06:44:17;5.30;;;3.05;;
5585;SDS011;2815;54.094;12.112;2023-07-31T06:46:47;5.43;;;3.28;;
5585;SDS011;2815;54.094;12.112;2023-07-31T06:49:17;5.10;;;3.30;;
5585;SDS011;2815;54.094;12.112;2023-07-31T06:51:46;5.60;;;3.17;;
5585;SDS011;2815;54.094;12.112;2023-07-31T06:54:14;5.90;;;3.35;;
5585;SDS011;2815;54.094;12.112;2023-07-31T06:56:44;7.18;;;3.30;;
5585;SDS011;2815;54.094;12.112;2023-07-31T06:59:21;5.63;;;3.33;;
5585;SDS011;2815;54.094;12.112;2023-07-31T07:01:50;7.70;;;3.25;;
5585;SDS011;2815;54.094;12.112;2023-07-31T07:04:21;6.40;;;3.50;;
5585;SDS011;2815;54.094;12.112;2023-07-31T07:07:20;6.70;;;3.38;;
5585;SDS011;2815;54.094;12.112;2023-07-31T07:09:57;6.15;;;3.72;;
5585;SDS011;2815;54.094;12.112;2023-07-31T07:12:28;5.53;;;3.30;;
5585;SDS011;2815;54.094;12.112;2023-07-31T07:15:01;7.70;;;3.30;;
5585;SDS011;2815;54.094;12.112;2023-07-31T07:17:33;8.02;;;2.88;;
5585;SDS011;2815;54.094;12.112;2023-07-31T07:20:01;4.00;;;2.92;;
5585;SDS011;2815;54.094;12.112;2023-07-31T07:22:31;6.38;;;2.95;;
5585;SDS011;2815;54.094;12.112;2023-07-31T07:25:03;7.15;;;2.80;;
5585;SDS011;2815;54.094;12.112;2023-07-31T07:27:34;5.20;;;2.90;;
5585;SDS011;2815;54.094;12.112;2023-07-31T07:30:07;4.65;;;2.63;;
5585;SDS011;2815;54.094;12.112;2023-07-31T07:32:36;5.43;;;2.75;;
5585;SDS011;2815;54.094;12.112;2023-07-31T07:35:05;5.28;;;2.55;;
5585;SDS011;2815;54.094;12.112;2023-07-31T07:37:34;4.75;;;2.45;;
5585;SDS011;2815;54.094;12.112;2023-07-31T07:40:03;4.18;;;2.65;;
5585;SDS011;2815;54.094;12.112;2023-07-31T07:42:35;3.30;;;2.40;;
5585;SDS011;2815;54.094;12.112;2023-07-31T07:45:10;4.55;;;2.47;;
5585;SDS011;2815;54.094;12.112;2023-07-31T07:47:40;4.70;;;2.15;;
5585;SDS011;2815;54.094;12.112;2023-07-31T07:50:11;4.47;;;2.35;;
5585;SDS011;2815;54.094;12.112;2023-07-31T07:52:40;4.15;;;2.30;;
5585;SDS011;2815;54.094;12.112;2023-07-31T07:55:08;3.55;;;1.85;;
5585;SDS011;2815;54.094;12.112;2023-07-31T07:57:38;3.03;;;2.03;;
5585;SDS011;2815;54.094;12.112;2023-07-31T08:00:09;3.55;;;2.00;;
5585;SDS011;2815;54.094;12.112;2023-07-31T08:02:41;5.75;;;1.80;;
5585;SDS011;2815;54.094;12.112;2023-07-31T08:05:10;3.25;;;1.80;;
5585;SDS011;2815;54.094;12.112;2023-07-31T08:07:39;3.78;;;2.03;;
5585;SDS011;2815;54.094;12.112;2023-07-31T08:10:08;6.63;;;2.10;;
5585;SDS011;2815;54.094;12.112;2023-07-31T08:12:37;2.90;;;1.90;;
5585;SDS011;2815;54.094;12.112;2023-07-31T08:15:09;2.30;;;1.85;;
5585;SDS011;2815;54.094;12.112;2023-07-31T08:17:41;3.13;;;2.00;;
5585;SDS011;2815;54.094;12.112;2023-07-31T08:20:11;3.70;;;1.77;;
5585;SDS011;2815;54.094;12.112;2023-07-31T08:22:44;3.00;;;1.60;;
5585;SDS011;2815;54.094;12.112;2023-07-31T08:25:13;2.80;;;1.90;;
5585;SDS011;2815;54.094;12.112;2023-07-31T08:27:44;2.20;;;1.65;;
5585;SDS011;2815;54.094;12.112;2023-07-31T08:30:22;2.75;;;1.80;;
5585;SDS011;2815;54.094;12.112;2023-07-31T08:33:04;3.95;;;1.60;;
5585;SDS011;2815;54.094;12.112;2023-07-31T08:35:36;3.08;;;1.90;;
5585;SDS011;2815;54.094;12.112;2023-07-31T08:38:05;4.00;;;1.58;;
5585;SDS011;2815;54.094;12.112;2023-07-31T08:40:35;2.47;;;1.67;;
5585;SDS011;2815;54.094;12.112;2023-07-31T08:43:06;4.78;;;1.60;;
5585;SDS011;2815;54.094;12.112;2023-07-31T08:45:36;1.80;;;1.23;;
5585;SDS011;2815;54.094;12.112;2023-07-31T08:48:06;3.20;;;1.60;;
5585;SDS011;2815;54.094;12.112;2023-07-31T08:50:35;3.40;;;2.20;;
5585;SDS011;2815;54.094;12.112;2023-07-31T08:53:04;4.13;;;1.92;;
5585;SDS011;2815;54.094;12.112;2023-07-31T08:55:33;4.85;;;1.88;;
5585;SDS011;2815;54.094;12.112;2023-07-31T08:58:02;3.50;;;1.52;;
5585;SDS011;2815;54.094;12.112;2023-07-31T09:00:34;2.10;;;1.40;;
5585;SDS011;2815;54.094;12.112;2023-07-31T09:03:08;2.63;;;1.17;;
5585;SDS011;2815;54.094;12.112;2023-07-31T09:11:26;1.83;;;1.35;;
5585;SDS011;2815;54.094;12.112;2023-07-31T09:13:54;4.05;;;1.50;;
5585;SDS011;2815;54.094;12.112;2023-07-31T09:24:20;1.65;;;1.02;;
5585;SDS011;2815;54.094;12.112;2023-07-31T09:28:57;4.65;;;1.35;;
5585;SDS011;2815;54.094;12.112;2023-07-31T09:35:58;1.55;;;1.10;;
5585;SDS011;2815;54.094;12.112;2023-07-31T09:38:26;4.05;;;1.50;;
5585;SDS011;2815;54.094;12.112;2023-07-31T09:50:00;1.67;;;1.30;;
5585;SDS011;2815;54.094;12.112;2023-07-31T10:01:43;1.52;;;1.20;;
5585;SDS011;2815;54.094;12.112;2023-07-31T10:04:14;1.60;;;1.20;;
5585;SDS011;2815;54.094;12.112;2023-07-31T10:07:49;1.88;;;1.10;;
5585;SDS011;2815;54.094;12.112;2023-07-31T10:11:17;1.95;;;1.23;;
5585;SDS011;2815;54.094;12.112;2023-07-31T10:13:47;4.28;;;1.10;;
5585;SDS011;2815;54.094;12.112;2023-07-31T10:16:16;2.20;;;1.00;;
5585;SDS011;2815;54.094;12.112;2023-07-31T10:22:26;2.22;;;0.95;;
5585;SDS011;2815;54.094;12.112;2023-07-31T10:24:57;1.98;;;1.40;;
5585;SDS011;2815;54.094;12.112;2023-07-31T10:27:26;2.85;;;1.33;;
5585;SDS011;2815;54.094;12.112;2023-07-31T10:29:55;3.13;;;1.23;;
5585;SDS011;2815;54.094;12.112;2023-07-31T10:36:13;3.37;;;1.60;;
5585;SDS011;2815;54.094;12.112;2023-07-31T10:38:46;2.67;;;1.70;;
5585;SDS011;2815;54.094;12.112;2023-07-31T10:48:03;2.45;;;1.80;;
5585;SDS011;2815;54.094;12.112;2023-07-31T10:54:12;4.33;;;1.50;;
5585;SDS011;2815;54.094;12.112;2023-07-31T11:07:11;6.13;;;1.50;;
5585;SDS011;2815;54.094;12.112;2023-07-31T11:09:40;2.35;;;1.50;;
5585;SDS011;2815;54.094;12.112;2023-07-31T11:12:10;1.95;;;1.35;;
5585;SDS011;2815;54.094;12.112;2023-07-31T11:18:26;2.63;;;1.40;;
5585;SDS011;2815;54.094;12.112;2023-07-31T11:20:57;1.45;;;1.20;;
5585;SDS011;2815;54.094;12.112;2023-07-31T11:23:25;1.95;;;1.23;;
5585;SDS011;2815;54.094;12.112;2023-07-31T11:35:11;1.88;;;1.40;;
5585;SDS011;2815;54.094;12.112;2023-07-31T11:38:50;3.90;;;1.40;;
5585;SDS011;2815;54.094;12.112;2023-07-31T11:41:58;3.85;;;1.48;;
5585;SDS011;2815;54.094;12.112;2023-07-31T11:44:26;2.10;;;1.20;;
5585;SDS011;2815;54.094;12.112;2023-07-31T11:47:17;2.55;;;1.20;;
5585;SDS011;2815;54.094;12.112;2023-07-31T11:49:45;1.90;;;1.00;;
5585;SDS011;2815;54.094;12.112;2023-07-31T11:52:16;2.22;;;1.20;;
5585;SDS011;2815;54.094;12.112;2023-07-31T11:54:47;3.40;;;1.35;;
5585;SDS011;2815;54.094;12.112;2023-07-31T11:57:15;2.35;;;1.23;;
5585;SDS011;2815;54.094;12.112;2023-07-31T11:59:49;2.70;;;1.13;;
5585;SDS011;2815;54.094;12.112;2023-07-31T12:02:21;1.23;;;0.93;;
5585;SDS011;2815;54.094;12.112;2023-07-31T12:04:51;4.20;;;1.08;;
5585;SDS011;2815;54.094;12.112;2023-07-31T12:07:21;4.40;;;1.33;;
5585;SDS011;2815;54.094;12.112;2023-07-31T12:09:54;4.60;;;1.10;;
5585;SDS011;2815;54.094;12.112;2023-07-31T12:12:25;2.25;;;1.20;;
5585;SDS011;2815;54.094;12.112;2023-07-31T12:14:54;3.28;;;1.25;;
5585;SDS011;2815;54.094;12.112;2023-07-31T12:17:23;4.30;;;1.40;;
5585;SDS011;2815;54.094;12.112;2023-07-31T12:19:54;2.25;;;1.08;;
5585;SDS011;2815;54.094;12.112;2023-07-31T12:22:29;1.40;;;0.70;;
5585;SDS011;2815;54.094;12.112;2023-07-31T12:24:57;3.05;;;1.02;;
5585;SDS011;2815;54.094;12.112;2023-07-31T12:27:32;1.92;;;0.73;;
5585;SDS011;2815;54.094;12.112;2023-07-31T12:30:01;1.95;;;0.70;;
5585;SDS011;2815;54.094;12.112;2023-07-31T12:32:34;1.23;;;0.70;;
5585;SDS011;2815;54.094;12.112;2023-07-31T12:35:06;0.93;;;0.63;;
5585;SDS011;2815;54.094;12.112;2023-07-31T12:37:38;4.10;;;0.80;;
5585;SDS011;2815;54.094;12.112;2023-07-31T12:40:07;3.40;;;0.82;;
5585;SDS011;2815;54.094;12.112;2023-07-31T12:43:13;1.40;;;0.93;;
5585;SDS011;2815;54.094;12.112;2023-07-31T12:45:42;1.42;;;0.65;;
5585;SDS011;2815;54.094;12.112;2023-07-31T12:48:10;1.88;;;0.85;;
5585;SDS011;2815;54.094;12.112;2023-07-31T13:03:37;0.82;;;0.60;;
5585;SDS011;2815;54.094;12.112;2023-07-31T17:21:36;2.05;;;0.90;;
5585;SDS011;2815;54.094;12.112;2023-07-31T17:24:07;1.88;;;1.20;;
5585;SDS011;2815;54.094;12.112;2023-07-31T17:26:45;3.10;;;1.13;;
5585;SDS011;2815;54.094;12.112;2023-07-31T17:29:16;3.10;;;1.02;;
5585;SDS011;2815;54.094;12.112;2023-07-31T17:31:49;2.60;;;1.10;;
5585;SDS011;2815;54.094;12.112;2023-07-31T17:34:30;3.63;;;1.20;;
5585;SDS011;2815;54.094;12.112;2023-07-31T17:37:04;3.42;;;1.08;;
5585;SDS011;2815;54.094;12.112;2023-07-31T17:39:33;2.03;;;1.00;;
5585;SDS011;2815;54.094;12.112;2023-07-31T17:42:02;1.75;;;0.82;;
5585;SDS011;2815;54.094;12.112;2023-07-31T17:44:32;2.65;;;1.05;;
5585;SDS011;2815;54.094;12.112;2023-07-31T17:47:02;3.85;;;1.10;;
5585;SDS011;2815;54.094;12.112;2023-07-31T17:57:23;2.22;;;1.15;;
5585;SDS011;2815;54.094;12.112;2023-07-31T18:00:54;1.63;;;0.93;;
5585;SDS011;2815;54.094;12.112;2023-07-31T18:03:26;1.83;;;1.05;;
5585;SDS011;2815;54.094;12.112;2023-07-31T18:05:56;2.05;;;0.90;;
5585;SDS011;2815;54.094;12.112;2023-07-31T18:08:37;1.80;;;1.00;;
5585;SDS011;2815;54.094;12.112;2023-07-31T18:11:06;1.58;;;1.00;;
5585;SDS011;2815;54.094;12.112;2023-07-31T18:17:48;2.28;;;0.85;;
5585;SDS011;2815;54.094;12.112;2023-07-31T18:21:44;2.63;;;1.08;;
5585;SDS011;2815;54.094;12.112;2023-07-31T18:24:15;2.42;;;1.00;;
5585;SDS011;2815;54.094;12.112;2023-07-31T18:26:45;3.45;;;1.20;;
5585;SDS011;2815;54.094;12.112;2023-07-31T18:29:14;2.03;;;0.98;;
5585;SDS011;2815;54.094;12.112;2023-07-31T18:31:45;1.70;;;1.20;;
5585;SDS011;2815;54.094;12.112;2023-07-31T18:39:19;3.42;;;1.10;;
5585;SDS011;2815;54.094;12.112;2023-07-31T18:49:16;1.67;;;0.98;;
5585;SDS011;2815;54.094;12.112;2023-07-31T18:51:45;3.00;;;0.95;;
5585;SDS011;2815;54.094;12.112;2023-07-31T19:02:09;2.70;;;1.02;;
5585;SDS011;2815;54.094;12.112;2023-07-31T19:10:12;1.65;;;1.00;;
5585;SDS011;2815;54.094;12.112;2023-07-31T19:12:43;3.25;;;1.25;;
5585;SDS011;2815;54.094;12.112;2023-07-31T19:15:14;1.30;;;0.93;;
5585;SDS011;2815;54.094;12.112;2023-07-31T19:21:17;2.53;;;1.20;;
5585;SDS011;2815;54.094;12.112;2023-07-31T19:23:46;3.30;;;1.20;;
5585;SDS011;2815;54.094;12.112;2023-07-31T19:26:16;5.80;;;1.23;;
5585;SDS011;2815;54.094;12.112;2023-07-31T19:28:46;5.38;;;1.20;;
5585;SDS011;2815;54.094;12.112;2023-07-31T19:31:15;1.73;;;1.25;;
5585;SDS011;2815;54.094;12.112;2023-07-31T19:33:47;3.85;;;1.20;;
5585;SDS011;2815;54.094;12.112;2023-07-31T19:36:21;1.83;;;1.13;;
5585;SDS011;2815;54.094;12.112;2023-07-31T19:38:50;1.58;;;0.98;;
5585;SDS011;2815;54.094;12.112;2023-07-31T19:41:20;2.80;;;1.08;;
5585;SDS011;2815;54.094;12.112;2023-07-31T19:43:51;1.55;;;1.00;;
5585;SDS011;2815;54.094;12.112;2023-07-31T19:46:23;1.85;;;1.08;;
5585;SDS011;2815;54.094;12.112;2023-07-31T19:48:53;1.85;;;1.20;;
5585;SDS011;2815;54.094;12.112;2023-07-31T19:51:37;2.92;;;1.10;;
5585;SDS011;2815;54.094;12.112;2023-07-31T19:54:06;2.60;;;1.02;;
5585;SDS011;2815;54.094;12.112;2023-07-31T19:56:35;1.02;;;0.88;;
5585;SDS011;2815;54.094;12.112;2023-07-31T19:59:23;3.53;;;1.45;;
5585;SDS011;2815;54.094;12.112;2023-07-31T20:01:55;4.00;;;1.25;;
5585;SDS011;2815;54.094;12.112;2023-07-31T20:04:27;2.17;;;1.50;;
5585;SDS011;2815;54.094;12.112;2023-07-31T20:06:58;2.08;;;1.17;;
5585;SDS011;2815;54.094;12.112;2023-07-31T20:09:27;4.18;;;1.42;;
5585;SDS011;2815;54.094;12.112;2023-07-31T20:11:59;2.47;;;1.85;;
5585;SDS011;2815;54.094;12.112;2023-07-31T20:14:29;2.63;;;1.75;;
5585;SDS011;2815;54.094;12.112;2023-07-31T20:17:00;2.80;;;1.63;;
5585;SDS011;2815;54.094;12.112;2023-07-31T20:19:29;3.55;;;2.10;;
5585;SDS011;2815;54.094;12.112;2023-07-31T20:22:01;2.83;;;2.00;;
5585;SDS011;2815;54.094;12.112;2023-07-31T20:24:30;2.58;;;2.00;;
5585;SDS011;2815;54.094;12.112;2023-07-31T20:26:58;3.47;;;2.33;;
5585;SDS011;2815;54.094;12.112;2023-07-31T20:29:27;5.78;;;2.22;;
5585;SDS011;2815;54.094;12.112;2023-07-31T20:31:56;4.25;;;2.40;;
5585;SDS011;2815;54.094;12.112;2023-07-31T20:34:29;3.53;;;2.20;;
5585;SDS011;2815;54.094;12.112;2023-07-31T20:36:59;2.60;;;2.10;;
5585;SDS011;2815;54.094;12.112;2023-07-31T20:39:29;5.75;;;2.40;;
5585;SDS011;2815;54.094;12.112;2023-07-31T20:41:59;4.43;;;2.80;;
5585;SDS011;2815;54.094;12.112;2023-07-31T20:44:28;3.47;;;2.65;;
5585;SDS011;2815;54.094;12.112;2023-07-31T20:46:57;4.30;;;2.65;;
5585;SDS011;2815;54.094;12.112;2023-07-31T20:52:52;5.85;;;2.97;;
5585;SDS011;2815;54.094;12.112;2023-07-31T20:55:23;4.18;;;2.75;;
5585;SDS011;2815;54.094;12.112;2023-07-31T20:57:53;5.13;;;2.78;;
5585;SDS011;2815;54.094;12.112;2023-07-31T21:31:14;6.47;;;3.35;;
5585;SDS011;2815;54.094;12.112;2023-07-31T21:34:33;4.35;;;2.83;;
5585;SDS011;2815;54.094;12.112;2023-07-31T21:37:03;6.18;;;2.92;;
5585;SDS011;2815;54.094;12.112;2023-07-31T21:39:32;4.80;;;3.25;;
5585;SDS011;2815;54.094;12.112;2023-07-31T21:42:01;4.53;;;3.20;;
5585;SDS011;2815;54.094;12.112;2023-07-31T21:44:29;5.10;;;3.20;;
5585;SDS011;2815;54.094;12.112;2023-07-31T22:08:27;4.63;;;3.83;;
5585;SDS011;2815;54.094;12.112;2023-07-31T22:10:58;5.47;;;4.35;;
5585;SDS011;2815;54.094;12.112;2023-07-31T22:13:28;6.82;;;3.80;;
5585;SDS011;2815;54.094;12.112;2023-07-31T22:15:57;8.80;;;4.90;;
5585;SDS011;2815;54.094;12.112;2023-07-31T22:18:25;6.03;;;4.20;;
5585;SDS011;2815;54.094;12.112;2023-07-31T22:20:54;4.82;;;3.83;;
5585;SDS011;2815;54.094;12.112;2023-07-31T22:23:23;6.95;;;4.10;;
5585;SDS011;2815;54.094;12.112;2023-07-31T22:25:53;7.70;;;4.28;;
5585;SDS011;2815;54.094;12.112;2023-07-31T22:28:22;6.05;;;4.18;;
5585;SDS011;2815;54.094;12.112;2023-07-31T22:30:50;7.80;;;4.70;;
5585;SDS011;2815;54.094;12.112;2023-07-31T22:33:20;7.32;;;4.68;;
5585;SDS011;2815;54.094;12.112;2023-07-31T22:35:50;7.95;;;4.85;;
5585;SDS011;2815;54.094;12.112;2023-07-31T22:38:19;7.75;;;5.25;;
5585;SDS011;2815;54.094;12.112;2023-07-31T22:40:48;7.25;;;5.00;;
5585;SDS011;2815;54.094;12.112;2023-07-31T22:43:18;7.90;;;5.50;;
5585;SDS011;2815;54.094;12.112;2023-07-31T22:45:50;9.93;;;5.88;;
5585;SDS011;2815;54.094;12.112;2023-07-31T22:48:19;7.85;;;5.68;;
5585;SDS011;2815;54.094;12.112;2023-07-31T22:50:47;7.95;;;5.47;;
5585;SDS011;2815;54.094;12.112;2023-07-31T22:53:17;8.98;;;6.03;;
5585;SDS011;2815;54.094;12.112;2023-07-31T22:55:46;7.85;;;5.43;;
5585;SDS011;2815;54.094;12.112;2023-07-31T22:58:15;10.65;;;6.47;;
5585;SDS011;2815;54.094;12.112;2023-07-31T23:00:48;9.93;;;5.60;;
5585;SDS011;2815;54.094;12.112;2023-07-31T23:03:18;8.13;;;5.65;;
5585;SDS011;2815;54.094;12.112;2023-07-31T23:05:47;10.38;;;5.72;;
5585;SDS011;2815;54.094;12.112;2023-07-31T23:08:16;9.75;;;5.97;;
5585;SDS011;2815;54.094;12.112;2023-07-31T23:10:46;7.03;;;5.65;;
5585;SDS011;2815;54.094;12.112;2023-07-31T23:13:16;7.78;;;5.78;;
5585;SDS011;2815;54.094;12.112;2023-07-31T23:15:47;9.05;;;5.85;;
5585;SDS011;2815;54.094;12.112;2023-07-31T23:18:15;7.05;;;5.30;;
5585;SDS011;2815;54.094;12.112;2023-07-31T23:20:48;9.73;;;5.57;;
5585;SDS011;2815;54.094;12.112;2023-07-31T23:25:45;8.68;;;5.68;;
5585;SDS011;2815;54.094;12.112;2023-07-31T23:28:15;8.82;;;5.20;;
5585;SDS011;2815;54.094;12.112;2023-07-31T23:30:44;8.40;;;5.13;;
5585;SDS011;2815;54.094;12.112;2023-07-31T23:33:14;6.95;;;5.05;;
5585;SDS011;2815;54.094;12.112;2023-07-31T23:35:43;8.25;;;4.65;;
5585;SDS011;2815;54.094;12.112;2023-07-31T23:38:13;5.80;;;4.40;;
5585;SDS011;2815;54.094;12.112;2023-07-31T23:40:41;6.60;;;4.65;;
5585;SDS011;2815;54.094;12.112;2023-07-31T23:43:11;7.20;;;5.03;;
5585;SDS011;2815;54.094;12.112;2023-07-31T23:45:40;7.38;;;4.68;;
5585;SDS011;2815;54.094;12.112;2023-07-31T23:48:09;6.95;;;4.88;;
5585;SDS011;2815;54.094;12.112;2023-07-31T23:50:40;6.35;;;4.40;;
5585;SDS011;2815;54.094;12.112;2023-07-31T23:53:08;7.20;;;4.85;;
5585;SDS011;2815;54.094;12.112;2023-07-31T23:55:37;6.40;;;4.68;;
5585;SDS011;2815;54.094;12.112;2023-07-31T23:58:09;6.13;;;4.40;;
